Peotone Weather

Nearby METAR Reports

 

KIGQ - Lansing, Illinois, USA
Distance from station: NE 19mi, 30km
Updated: Tue, 22-Oct-2019 11:03am CDT
unable to load KIGQ data RC=
unable to load KIGQ data RC=
 
KIKK - Kankakee, Illinois, USA
Distance from station: S 19mi, 30km
Updated: Tue, 22-Oct-2019 10:55am CDT
Overcast
Overcast
 Wind from WSW
Wind: WSW 26 mph , 43 km/h, Gust: 35 mph , 56 km/h
Temperature: 52°F , 11°C
Dew Point: 41°F , 5°C
Humidity: 67%
Barometer: 29.69 inHg , 1005.4 hPa
Clouds: Overcast
Visibility: 10 miles , 16 km
Cloud details: Overcast 2400 ft
2019/10/22 15:55 KIKK 221555Z AUTO 25023G30KT 10SM OVC024 11/05 A2969 RMK AO2 T01060052
 
KSJC - Joliet, Illinois, USA
Distance from station: WNW 24mi, 38km
Updated: Tue, 22-Oct-2019 10:53am CDT
Few Clouds
Few Clouds
 Wind from calm
Wind: Calm
Temperature: 63°F , 17°C
Dew Point: 48°F , 9°C
Humidity: 59%
Barometer: 30.19 inHg , 1022.4 hPa
Clouds: Few Clouds
Visibility: 10 miles , 16 km
Cloud details: Few Clouds 10000 ft
2019/10/22 15:53 KSJC 221553Z 00000KT 10SM FEW100 17/09 A3019 RMK AO2 SLP223 T01720094
KLOT - Romeoville, Illinois, USA
Distance from station: NW 26mi, 41km
Updated: Tue, 22-Oct-2019 10:55am CDT
Overcast
Overcast
 Wind from WSW
Wind: WSW 26 mph , 43 km/h, Gust: 30 mph , 48 km/h
Temperature: 48°F , 9°C
Wind Chill: 40°F , 4°C
Dew Point: 41°F , 5°C
Humidity: 76%
Barometer: 29.62 inHg , 1003 hPa
Clouds: Overcast
Visibility: 10 miles , 16 km
Cloud details: Overcast 2400 ft
2019/10/22 15:55 KLOT 221555Z AUTO 25023G26KT 10SM OVC024 09/05 A2962 RMK AO2 T00870050
 
KMDW - Midway Airport Chicago, Illinois, USA
Distance from station: N 31mi, 50km
Updated: Tue, 22-Oct-2019 10:53am CDT
Overcast
Overcast
 Wind from WSW
Wind: WSW 24 mph , 39 km/h, Gust: 38 mph , 61 km/h
Temperature: 48°F , 9°C
Wind Chill: 40°F , 4°C
Dew Point: 41°F , 5°C
Humidity: 76%
Barometer: 29.60 inHg , 1002.4 hPa
Clouds: Overcast
Visibility: 10 miles , 16 km
Cloud details: Mostly cloudy 2200 ft
Overcast 2900 ft
2019/10/22 15:53 KMDW 221553Z 24021G33KT 10SM BKN022 OVC029 09/05 A2960 RMK AO2 PK WND 24035/1457 RAE38 SLP025 P0004 T00890050
KC09 - Morris, Illinois, USA
Distance from station: W 34mi, 54km
Updated: Tue, 22-Oct-2019 10:55am CDT
Overcast
Overcast
 Wind from WSW
Wind: WSW 21 mph , 33 km/h, Gust: 33 mph , 54 km/h
Temperature: 48°F , 9°C
Wind Chill: 41°F , 5°C
Dew Point: 41°F , 5°C
Humidity: 76%
Barometer: 29.64 inHg , 1003.7 hPa
Clouds: Overcast
Visibility: 10 miles , 16 km
Cloud details: Mostly cloudy 2900 ft
Overcast 3400 ft
2019/10/22 15:55 KC09 221555Z AUTO 25018G29KT 10SM BKN029 OVC034 09/05 A2964 RMK AO2 T00910047

Metar display script from Saratoga-Weather.org